sensor_id;sensor_type;location;lat;lon;timestamp;pressure;altitude;pressure_sealevel;temperature;humidity
15007;BME280;7599;50.748;13.142;2024-02-26T00:00:15;94379.88;;;11.15;71.74
15007;BME280;7599;50.748;13.142;2024-02-26T00:03:18;94377.97;;;11.16;71.85
15007;BME280;7599;50.748;13.142;2024-02-26T00:06:22;94371.53;;;11.20;71.89
15007;BME280;7599;50.748;13.142;2024-02-26T00:09:26;94368.28;;;11.11;72.11
15007;BME280;7599;50.748;13.142;2024-02-26T00:12:28;94371.81;;;11.15;72.25
15007;BME280;7599;50.748;13.142;2024-02-26T00:15:31;94359.09;;;11.12;72.01
15007;BME280;7599;50.748;13.142;2024-02-26T00:18:36;94361.00;;;11.12;72.37
15007;BME280;7599;50.748;13.142;2024-02-26T00:21:41;94361.00;;;11.12;72.20
15007;BME280;7599;50.748;13.142;2024-02-26T00:24:46;94362.97;;;11.15;71.71
15007;BME280;7599;50.748;13.142;2024-02-26T00:27:48;94356.75;;;11.11;71.98
15007;BME280;7599;50.748;13.142;2024-02-26T00:30:51;94358.31;;;11.12;72.01
15007;BME280;7599;50.748;13.142;2024-02-26T00:33:57;94360.28;;;11.15;72.03
15007;BME280;7599;50.748;13.142;2024-02-26T00:37:07;94354.19;;;11.18;71.63
15007;BME280;7599;50.748;13.142;2024-02-26T00:40:10;94344.50;;;11.13;71.92
15007;BME280;7599;50.748;13.142;2024-02-26T00:43:13;94341.75;;;11.10;72.28
15007;BME280;7599;50.748;13.142;2024-02-26T00:46:16;94335.25;;;11.11;71.99
15007;BME280;7599;50.748;13.142;2024-02-26T00:49:19;94339.13;;;11.13;71.97
15007;BME280;7599;50.748;13.142;2024-02-26T00:52:23;94340.66;;;11.14;71.83
15007;BME280;7599;50.748;13.142;2024-02-26T00:55:26;94327.09;;;11.07;72.01
15007;BME280;7599;50.748;13.142;2024-02-26T00:58:28;94339.47;;;11.12;71.80
15007;BME280;7599;50.748;13.142;2024-02-26T01:01:31;94331.06;;;11.13;71.81
15007;BME280;7599;50.748;13.142;2024-02-26T01:04:33;94332.56;;;11.11;71.74
15007;BME280;7599;50.748;13.142;2024-02-26T01:07:38;94328.03;;;11.15;71.79
15007;BME280;7599;50.748;13.142;2024-02-26T01:10:41;94317.53;;;11.10;71.91
15007;BME280;7599;50.748;13.142;2024-02-26T01:13:46;94323.34;;;11.12;71.93
15007;BME280;7599;50.748;13.142;2024-02-26T01:17:27;94303.63;;;11.04;71.96
15007;BME280;7599;50.748;13.142;2024-02-26T01:20:29;94323.44;;;11.15;71.71
15007;BME280;7599;50.748;13.142;2024-02-26T01:23:35;94298.31;;;11.07;71.75
15007;BME280;7599;50.748;13.142;2024-02-26T01:26:47;94308.41;;;11.14;71.76
15007;BME280;7599;50.748;13.142;2024-02-26T01:29:50;94299.53;;;11.10;71.36
15007;BME280;7599;50.748;13.142;2024-02-26T01:32:53;94304.09;;;11.10;71.09
15007;BME280;7599;50.748;13.142;2024-02-26T01:35:56;94289.81;;;11.05;71.45
15007;BME280;7599;50.748;13.142;2024-02-26T01:39:00;94287.56;;;11.07;70.92
15007;BME280;7599;50.748;13.142;2024-02-26T01:42:06;94280.63;;;11.06;71.20
15007;BME280;7599;50.748;13.142;2024-02-26T01:45:13;94274.03;;;11.04;71.11
15007;BME280;7599;50.748;13.142;2024-02-26T01:48:37;94271.00;;;11.05;70.90
15007;BME280;7599;50.748;13.142;2024-02-26T01:51:44;94265.63;;;11.05;71.35
15007;BME280;7599;50.748;13.142;2024-02-26T01:54:57;94270.34;;;11.12;71.28
15007;BME280;7599;50.748;13.142;2024-02-26T01:58:02;94266.91;;;11.12;71.31
15007;BME280;7599;50.748;13.142;2024-02-26T02:01:05;94263.00;;;11.09;71.17
15007;BME280;7599;50.748;13.142;2024-02-26T02:04:08;94256.44;;;11.06;71.61
15007;BME280;7599;50.748;13.142;2024-02-26T02:07:10;94266.91;;;11.12;71.92
15007;BME280;7599;50.748;13.142;2024-02-26T02:10:21;94262.69;;;11.14;71.13
15007;BME280;7599;50.748;13.142;2024-02-26T02:13:26;94255.69;;;11.10;71.49
15007;BME280;7599;50.748;13.142;2024-02-26T02:16:29;94256.44;;;11.06;71.44
15007;BME280;7599;50.748;13.142;2024-02-26T02:19:32;94266.59;;;11.17;71.83
15007;BME280;7599;50.748;13.142;2024-02-26T02:22:36;94255.78;;;11.13;71.55
15007;BME280;7599;50.748;13.142;2024-02-26T02:25:40;94259.59;;;11.12;71.53
15007;BME280;7599;50.748;13.142;2024-02-26T02:28:43;94254.59;;;11.11;71.18
15007;BME280;7599;50.748;13.142;2024-02-26T02:31:46;94261.59;;;11.15;71.29
15007;BME280;7599;50.748;13.142;2024-02-26T02:34:49;94268.44;;;11.13;71.63
15007;BME280;7599;50.748;13.142;2024-02-26T02:38:07;94278.13;;;11.17;71.85
15007;BME280;7599;50.748;13.142;2024-02-26T02:41:47;94266.59;;;11.17;71.42
15007;BME280;7599;50.748;13.142;2024-02-26T02:44:50;94275.50;;;11.21;71.40
15007;BME280;7599;50.748;13.142;2024-02-26T02:47:53;94267.66;;;11.12;71.85
15007;BME280;7599;50.748;13.142;2024-02-26T02:50:56;94263.13;;;11.16;71.73
15007;BME280;7599;50.748;13.142;2024-02-26T02:54:01;94256.13;;;11.12;71.51
15007;BME280;7599;50.748;13.142;2024-02-26T02:57:04;94261.22;;;11.17;71.60
15007;BME280;7599;50.748;13.142;2024-02-26T03:00:07;94271.13;;;11.13;72.01
15007;BME280;7599;50.748;13.142;2024-02-26T03:03:11;94269.22;;;11.13;71.70
15007;BME280;7599;50.748;13.142;2024-02-26T03:06:14;94266.47;;;11.10;71.88
15007;BME280;7599;50.748;13.142;2024-02-26T03:09:19;94281.59;;;11.18;71.97
15007;BME280;7599;50.748;13.142;2024-02-26T03:12:22;94278.50;;;11.16;71.71
15007;BME280;7599;50.748;13.142;2024-02-26T03:15:25;94280.44;;;11.19;71.70
15007;BME280;7599;50.748;13.142;2024-02-26T03:18:29;94282.31;;;11.15;72.25
15007;BME280;7599;50.748;13.142;2024-02-26T03:21:31;94283.88;;;11.16;71.30
15007;BME280;7599;50.748;13.142;2024-02-26T03:24:35;94282.66;;;11.13;71.92
15007;BME280;7599;50.748;13.142;2024-02-26T03:27:38;94269.59;;;11.12;71.85
15007;BME280;7599;50.748;13.142;2024-02-26T03:30:40;94285.41;;;11.17;71.90
15007;BME280;7599;50.748;13.142;2024-02-26T03:33:43;94280.75;;;11.14;71.56
15007;BME280;7599;50.748;13.142;2024-02-26T03:36:46;94283.50;;;11.17;71.85
15007;BME280;7599;50.748;13.142;2024-02-26T03:39:50;94279.97;;;11.13;72.10
15007;BME280;7599;50.748;13.142;2024-02-26T03:42:55;94284.94;;;11.11;71.76
15007;BME280;7599;50.748;13.142;2024-02-26T03:45:59;94268.38;;;11.09;71.47
15007;BME280;7599;50.748;13.142;2024-02-26T03:49:30;94274.97;;;11.12;71.90
15007;BME280;7599;50.748;13.142;2024-02-26T03:52:50;94278.06;;;11.14;71.60
15007;BME280;7599;50.748;13.142;2024-02-26T04:00:14;94281.88;;;11.13;71.62
15007;BME280;7599;50.748;13.142;2024-02-26T04:03:46;94286.47;;;11.12;71.92
15007;BME280;7599;50.748;13.142;2024-02-26T04:06:49;94278.00;;;11.10;71.42
15007;BME280;7599;50.748;13.142;2024-02-26T04:09:52;94279.91;;;11.10;71.42
15007;BME280;7599;50.748;13.142;2024-02-26T04:17:09;94266.41;;;11.06;70.86
15007;BME280;7599;50.748;13.142;2024-02-26T04:20:14;94266.75;;;11.04;71.26
15007;BME280;7599;50.748;13.142;2024-02-26T04:23:19;94270.28;;;11.08;70.95
15007;BME280;7599;50.748;13.142;2024-02-26T04:26:22;94271.72;;;11.02;70.96
15007;BME280;7599;50.748;13.142;2024-02-26T04:29:25;94292.56;;;11.09;71.20
15007;BME280;7599;50.748;13.142;2024-02-26T04:32:29;94286.09;;;11.10;70.71
15007;BME280;7599;50.748;13.142;2024-02-26T04:35:32;94271.78;;;11.06;70.89
15007;BME280;7599;50.748;13.142;2024-02-26T04:38:42;94284.03;;;11.03;71.03
15007;BME280;7599;50.748;13.142;2024-02-26T04:41:47;94292.16;;;11.07;70.75
15007;BME280;7599;50.748;13.142;2024-02-26T04:44:49;94279.78;;;11.02;70.53
15007;BME280;7599;50.748;13.142;2024-02-26T04:48:06;94289.78;;;11.02;70.62
15007;BME280;7599;50.748;13.142;2024-02-26T04:51:23;94295.63;;;11.07;70.99
15007;BME280;7599;50.748;13.142;2024-02-26T04:54:26;94289.41;;;11.03;70.51
15007;BME280;7599;50.748;13.142;2024-02-26T04:57:38;94295.63;;;11.07;70.75
15007;BME280;7599;50.748;13.142;2024-02-26T05:00:41;94292.50;;;11.05;70.46
15007;BME280;7599;50.748;13.142;2024-02-26T05:03:45;94280.94;;;11.01;70.22
15007;BME280;7599;50.748;13.142;2024-02-26T05:06:47;94295.63;;;11.07;70.87
15007;BME280;7599;50.748;13.142;2024-02-26T05:09:50;94298.31;;;11.07;70.83
15007;BME280;7599;50.748;13.142;2024-02-26T05:12:53;94306.31;;;11.04;70.71
15007;BME280;7599;50.748;13.142;2024-02-26T05:15:56;94296.69;;;11.03;70.92
15007;BME280;7599;50.748;13.142;2024-02-26T05:19:00;94312.53;;;11.08;70.62
15007;BME280;7599;50.748;13.142;2024-02-26T05:22:03;94309.06;;;11.07;70.60
15007;BME280;7599;50.748;13.142;2024-02-26T05:25:19;94299.31;;;10.99;70.11
15007;BME280;7599;50.748;13.142;2024-02-26T05:28:22;94310.13;;;11.03;70.28
15007;BME280;7599;50.748;13.142;2024-02-26T05:31:26;94315.50;;;11.03;70.15
15007;BME280;7599;50.748;13.142;2024-02-26T05:34:58;94313.59;;;11.03;70.46
15007;BME280;7599;50.748;13.142;2024-02-26T05:38:01;94309.06;;;11.07;70.85
15007;BME280;7599;50.748;13.142;2024-02-26T05:41:03;94303.97;;;11.02;70.59
15007;BME280;7599;50.748;13.142;2024-02-26T05:44:07;94310.13;;;11.03;70.59
15007;BME280;7599;50.748;13.142;2024-02-26T05:47:12;94312.47;;;11.04;70.45
15007;BME280;7599;50.748;13.142;2024-02-26T05:50:16;94307.84;;;11.05;70.79
15007;BME280;7599;50.748;13.142;2024-02-26T05:53:19;94317.06;;;11.04;70.66
15007;BME280;7599;50.748;13.142;2024-02-26T05:56:22;94310.13;;;11.03;70.51
15007;BME280;7599;50.748;13.142;2024-02-26T05:59:25;94317.06;;;11.04;70.43
15007;BME280;7599;50.748;13.142;2024-02-26T06:02:27;94312.47;;;11.04;70.63
15007;BME280;7599;50.748;13.142;2024-02-26T06:05:31;94311.69;;;11.04;70.57
15007;BME280;7599;50.748;13.142;2024-02-26T06:08:34;94308.16;;;11.00;70.46
15007;BME280;7599;50.748;13.142;2024-02-26T06:11:37;94315.88;;;11.01;70.53
15007;BME280;7599;50.748;13.142;2024-02-26T06:14:42;94322.06;;;11.05;70.31
15007;BME280;7599;50.748;13.142;2024-02-26T06:17:44;94313.97;;;11.02;70.44
15007;BME280;7599;50.748;13.142;2024-02-26T06:20:49;94312.75;;;10.99;70.89
15007;BME280;7599;50.748;13.142;2024-02-26T06:23:52;94305.91;;;11.02;70.09
15007;BME280;7599;50.748;13.142;2024-02-26T06:26:55;94312.38;;;11.01;70.17
15007;BME280;7599;50.748;13.142;2024-02-26T06:29:57;94314.38;;;11.04;70.11
15007;BME280;7599;50.748;13.142;2024-02-26T06:33:00;94312.34;;;10.97;70.29
15007;BME280;7599;50.748;13.142;2024-02-26T06:36:10;94307.75;;;10.98;70.19
15007;BME280;7599;50.748;13.142;2024-02-26T06:39:14;94308.50;;;10.98;70.29
15007;BME280;7599;50.748;13.142;2024-02-26T06:42:24;94306.97;;;10.97;70.81
15007;BME280;7599;50.748;13.142;2024-02-26T06:45:27;94309.00;;;11.04;69.91
15007;BME280;7599;50.748;13.142;2024-02-26T06:48:29;94310.13;;;11.03;70.45
15007;BME280;7599;50.748;13.142;2024-02-26T06:51:34;94302.78;;;11.00;70.23
15007;BME280;7599;50.748;13.142;2024-02-26T06:54:38;94305.47;;;11.00;70.28
15007;BME280;7599;50.748;13.142;2024-02-26T06:57:41;94317.44;;;11.02;70.61
15007;BME280;7599;50.748;13.142;2024-02-26T07:00:46;94313.88;;;10.98;70.01
15007;BME280;7599;50.748;13.142;2024-02-26T07:03:50;94321.59;;;11.00;70.65
15007;BME280;7599;50.748;13.142;2024-02-26T07:06:54;94311.13;;;10.95;70.53
15007;BME280;7599;50.748;13.142;2024-02-26T07:09:56;94331.63;;;11.03;70.12
15007;BME280;7599;50.748;13.142;2024-02-26T07:12:59;94340.84;;;11.02;70.29
15007;BME280;7599;50.748;13.142;2024-02-26T07:16:03;94334.63;;;10.98;70.19
15007;BME280;7599;50.748;13.142;2024-02-26T07:19:13;94328.81;;;10.96;70.75
15007;BME280;7599;50.748;13.142;2024-02-26T07:22:18;94333.03;;;10.97;70.72
15007;BME280;7599;50.748;13.142;2024-02-26T07:25:20;94332.28;;;10.96;70.60
15007;BME280;7599;50.748;13.142;2024-02-26T07:28:28;94335.41;;;10.98;71.00
15007;BME280;7599;50.748;13.142;2024-02-26T07:40:32;94344.59;;;10.97;70.40
15007;BME280;7599;50.748;13.142;2024-02-26T07:43:36;94340.28;;;10.93;70.30
15007;BME280;7599;50.748;13.142;2024-02-26T07:51:28;94353.84;;;11.00;70.39
15007;BME280;7599;50.748;13.142;2024-02-26T08:00:19;94353.84;;;11.00;70.63
15007;BME280;7599;50.748;13.142;2024-02-26T08:04:08;94349.97;;;10.97;70.83
15007;BME280;7599;50.748;13.142;2024-02-26T08:07:12;94359.22;;;11.00;71.09
15007;BME280;7599;50.748;13.142;2024-02-26T08:10:16;94363.47;;;11.01;70.74
15007;BME280;7599;50.748;13.142;2024-02-26T08:13:19;94358.75;;;10.94;70.68
15007;BME280;7599;50.748;13.142;2024-02-26T08:16:24;94361.56;;;11.01;70.78
15007;BME280;7599;50.748;13.142;2024-02-26T08:19:28;94358.44;;;10.99;70.71
15007;BME280;7599;50.748;13.142;2024-02-26T08:22:32;94353.06;;;10.99;71.08
15007;BME280;7599;50.748;13.142;2024-02-26T08:25:35;94359.31;;;11.03;70.56
15007;BME280;7599;50.748;13.142;2024-02-26T08:28:43;94356.53;;;11.00;70.62
15007;BME280;7599;50.748;13.142;2024-02-26T08:31:48;94372.66;;;11.00;70.64
15007;BME280;7599;50.748;13.142;2024-02-26T08:34:50;94377.25;;;10.99;70.86
15007;BME280;7599;50.748;13.142;2024-02-26T08:37:57;94368.78;;;10.97;69.97
15007;BME280;7599;50.748;13.142;2024-02-26T08:41:00;94370.75;;;11.00;70.79
15007;BME280;7599;50.748;13.142;2024-02-26T08:44:03;94360.28;;;10.95;70.51
15007;BME280;7599;50.748;13.142;2024-02-26T08:47:08;94380.41;;;11.01;70.41
15007;BME280;7599;50.748;13.142;2024-02-26T08:50:11;94376.13;;;11.00;70.39
15007;BME280;7599;50.748;13.142;2024-02-26T08:53:13;94383.09;;;11.01;70.61
15007;BME280;7599;50.748;13.142;2024-02-26T08:56:24;94381.56;;;11.04;70.66
15007;BME280;7599;50.748;13.142;2024-02-26T08:59:27;94388.47;;;11.01;71.03
15007;BME280;7599;50.748;13.142;2024-02-26T09:02:32;94389.63;;;11.04;70.78
15007;BME280;7599;50.748;13.142;2024-02-26T09:05:50;94387.72;;;11.04;70.60
15007;BME280;7599;50.748;13.142;2024-02-26T09:09:07;94385.41;;;11.03;70.98
15007;BME280;7599;50.748;13.142;2024-02-26T09:12:11;94376.91;;;11.01;70.99
15007;BME280;7599;50.748;13.142;2024-02-26T09:15:14;94386.09;;;11.00;70.93
15007;BME280;7599;50.748;13.142;2024-02-26T09:18:19;94391.56;;;11.03;70.70
15007;BME280;7599;50.748;13.142;2024-02-26T09:21:22;94384.63;;;11.02;71.02
15007;BME280;7599;50.748;13.142;2024-02-26T09:24:36;94387.72;;;11.04;70.50
15007;BME280;7599;50.748;13.142;2024-02-26T09:27:39;94391.91;;;11.02;70.38
15007;BME280;7599;50.748;13.142;2024-02-26T09:30:49;94381.94;;;11.02;70.74
15007;BME280;7599;50.748;13.142;2024-02-26T09:33:54;94388.09;;;11.03;70.65
15007;BME280;7599;50.748;13.142;2024-02-26T09:37:00;94391.84;;;10.98;71.38
15007;BME280;7599;50.748;13.142;2024-02-26T09:40:43;94400.84;;;11.06;70.45
15007;BME280;7599;50.748;13.142;2024-02-26T09:44:19;94395.03;;;11.04;70.61
15007;BME280;7599;50.748;13.142;2024-02-26T09:48:03;94404.63;;;11.05;71.05
15007;BME280;7599;50.748;13.142;2024-02-26T09:54:27;94408.09;;;11.05;70.82
15007;BME280;7599;50.748;13.142;2024-02-26T09:57:32;94401.16;;;11.04;70.45
15007;BME280;7599;50.748;13.142;2024-02-26T10:00:40;94401.91;;;11.01;70.64
15007;BME280;7599;50.748;13.142;2024-02-26T10:03:44;94403.78;;;11.01;70.84
15007;BME280;7599;50.748;13.142;2024-02-26T10:06:51;94402.66;;;11.02;70.74
15007;BME280;7599;50.748;13.142;2024-02-26T10:10:05;94404.16;;;10.99;71.30
15007;BME280;7599;50.748;13.142;2024-02-26T10:13:34;94407.69;;;11.03;71.31
15007;BME280;7599;50.748;13.142;2024-02-26T10:16:37;94406.84;;;10.99;71.06
15007;BME280;7599;50.748;13.142;2024-02-26T10:19:39;94417.31;;;11.04;71.31
15007;BME280;7599;50.748;13.142;2024-02-26T10:22:44;94416.44;;;11.00;70.95
15007;BME280;7599;50.748;13.142;2024-02-26T10:25:56;94421.06;;;11.00;71.24
15007;BME280;7599;50.748;13.142;2024-02-26T10:28:59;94427.56;;;10.99;71.38
15007;BME280;7599;50.748;13.142;2024-02-26T10:32:17;94428.34;;;10.99;71.58
15007;BME280;7599;50.748;13.142;2024-02-26T10:35:21;94432.88;;;10.95;71.46
15007;BME280;7599;50.748;13.142;2024-02-26T10:38:38;94433.03;;;11.02;71.04
15007;BME280;7599;50.748;13.142;2024-02-26T10:41:43;94435.56;;;10.95;71.14
15007;BME280;7599;50.748;13.142;2024-02-26T10:45:00;94448.44;;;11.05;71.55
15007;BME280;7599;50.748;13.142;2024-02-26T10:48:14;94440.31;;;11.02;71.30
15007;BME280;7599;50.748;13.142;2024-02-26T10:51:20;94428.78;;;11.01;71.32
15007;BME280;7599;50.748;13.142;2024-02-26T10:54:26;94441.50;;;11.04;71.61
15007;BME280;7599;50.748;13.142;2024-02-26T10:57:35;94438.81;;;11.04;71.53
15007;BME280;7599;50.748;13.142;2024-02-26T11:00:47;94425.56;;;10.96;71.33
15007;BME280;7599;50.748;13.142;2024-02-26T11:03:52;94436.13;;;11.04;71.37
15007;BME280;7599;50.748;13.142;2024-02-26T11:06:57;94427.94;;;10.97;72.00
15007;BME280;7599;50.748;13.142;2024-02-26T11:10:00;94442.28;;;11.05;71.83
15007;BME280;7599;50.748;13.142;2024-02-26T11:13:06;94428.78;;;11.01;71.57
15007;BME280;7599;50.748;13.142;2024-02-26T11:16:18;94438.41;;;11.02;71.37
15007;BME280;7599;50.748;13.142;2024-02-26T11:19:23;94429.81;;;10.97;71.75
15007;BME280;7599;50.748;13.142;2024-02-26T11:22:27;94437.25;;;11.03;71.53
15007;BME280;7599;50.748;13.142;2024-02-26T11:25:30;94431.47;;;11.01;71.62
15007;BME280;7599;50.748;13.142;2024-02-26T11:28:38;94432.25;;;11.02;71.29
15007;BME280;7599;50.748;13.142;2024-02-26T11:31:41;94435.34;;;11.04;71.12
15007;BME280;7599;50.748;13.142;2024-02-26T11:34:45;94436.84;;;11.01;71.22
15007;BME280;7599;50.748;13.142;2024-02-26T11:37:51;94450.34;;;11.05;71.77
15007;BME280;7599;50.748;13.142;2024-02-26T11:40:54;94451.09;;;11.05;71.80
15007;BME280;7599;50.748;13.142;2024-02-26T11:44:00;94441.09;;;11.02;71.47
15007;BME280;7599;50.748;13.142;2024-02-26T11:47:12;94447.59;;;11.01;71.42
15007;BME280;7599;50.748;13.142;2024-02-26T11:50:34;94453.09;;;11.08;71.17
15007;BME280;7599;50.748;13.142;2024-02-26T11:53:55;94461.88;;;11.05;71.34
15007;BME280;7599;50.748;13.142;2024-02-26T11:57:01;94461.09;;;11.05;71.45
15007;BME280;7599;50.748;13.142;2024-02-26T12:00:13;94454.44;;;10.99;71.48
15007;BME280;7599;50.748;13.142;2024-02-26T12:03:40;94459.13;;;11.02;71.68
15007;BME280;7599;50.748;13.142;2024-02-26T12:06:46;94476.13;;;11.06;71.27
15007;BME280;7599;50.748;13.142;2024-02-26T12:09:49;94462.22;;;11.04;71.48
15007;BME280;7599;50.748;13.142;2024-02-26T12:12:54;94461.88;;;11.05;71.40
15007;BME280;7599;50.748;13.142;2024-02-26T12:15:58;94469.94;;;11.05;71.35
15007;BME280;7599;50.748;13.142;2024-02-26T12:19:05;94474.19;;;11.06;71.08
15007;BME280;7599;50.748;13.142;2024-02-26T12:22:13;94482.59;;;11.05;71.01
15007;BME280;7599;50.748;13.142;2024-02-26T12:25:20;94471.50;;;11.06;71.69
15007;BME280;7599;50.748;13.142;2024-02-26T12:28:27;94461.38;;;11.00;71.34
15007;BME280;7599;50.748;13.142;2024-02-26T12:31:31;94464.91;;;11.04;71.16
15007;BME280;7599;50.748;13.142;2024-02-26T12:34:35;94467.59;;;11.04;71.60
15007;BME280;7599;50.748;13.142;2024-02-26T12:37:57;94455.50;;;10.94;71.58
15007;BME280;7599;50.748;13.142;2024-02-26T12:41:00;94478.34;;;11.04;71.37
15007;BME280;7599;50.748;13.142;2024-02-26T12:44:04;94477.66;;;11.07;71.31
15007;BME280;7599;50.748;13.142;2024-02-26T12:47:11;94482.25;;;11.06;71.11
15007;BME280;7599;50.748;13.142;2024-02-26T12:50:18;94468.38;;;11.04;71.65
15007;BME280;7599;50.748;13.142;2024-02-26T12:53:21;94470.66;;;11.02;71.41
15007;BME280;7599;50.748;13.142;2024-02-26T12:56:25;94465.28;;;11.02;71.92
15007;BME280;7599;50.748;13.142;2024-02-26T12:59:34;94471.00;;;11.01;71.44
15007;BME280;7599;50.748;13.142;2024-02-26T13:02:38;94478.34;;;11.04;71.91
15007;BME280;7599;50.748;13.142;2024-02-26T13:05:42;94480.63;;;11.02;71.54
15007;BME280;7599;50.748;13.142;2024-02-26T13:08:45;94480.19;;;11.00;71.42
15007;BME280;7599;50.748;13.142;2024-02-26T13:11:53;94482.19;;;11.03;72.00
15007;BME280;7599;50.748;13.142;2024-02-26T13:15:16;94491.38;;;11.02;71.99
15007;BME280;7599;50.748;13.142;2024-02-26T13:18:20;94498.31;;;11.03;71.29
15007;BME280;7599;50.748;13.142;2024-02-26T13:21:23;94511.06;;;11.06;71.89
15007;BME280;7599;50.748;13.142;2024-02-26T13:24:27;94504.47;;;11.03;71.73
15007;BME280;7599;50.748;13.142;2024-02-26T13:27:32;94504.09;;;11.05;71.46
15007;BME280;7599;50.748;13.142;2024-02-26T13:30:35;94512.16;;;11.05;72.41
15007;BME280;7599;50.748;13.142;2024-02-26T13:33:40;94512.94;;;11.05;71.74
15007;BME280;7599;50.748;13.142;2024-02-26T13:36:43;94507.44;;;10.98;71.75
15007;BME280;7599;50.748;13.142;2024-02-26T13:39:49;94514.84;;;11.05;72.11
15007;BME280;7599;50.748;13.142;2024-02-26T13:43:00;94512.88;;;11.02;72.52
15007;BME280;7599;50.748;13.142;2024-02-26T13:46:03;94523.38;;;11.07;72.28
15007;BME280;7599;50.748;13.142;2024-02-26T13:49:08;94521.47;;;11.07;72.00
15007;BME280;7599;50.748;13.142;2024-02-26T13:52:11;94521.88;;;11.10;71.33
15007;BME280;7599;50.748;13.142;2024-02-26T13:55:14;94529.53;;;11.07;71.99
15007;BME280;7599;50.748;13.142;2024-02-26T13:58:17;94532.22;;;11.07;72.43
15007;BME280;7599;50.748;13.142;2024-02-26T14:01:24;94539.41;;;11.03;72.36
15007;BME280;7599;50.748;13.142;2024-02-26T14:04:28;94536.31;;;11.01;72.14
15007;BME280;7599;50.748;13.142;2024-02-26T14:07:31;94551.72;;;11.04;72.42
15007;BME280;7599;50.748;13.142;2024-02-26T14:10:44;94559.44;;;11.06;72.12
15007;BME280;7599;50.748;13.142;2024-02-26T14:13:47;94547.75;;;10.98;72.52
15007;BME280;7599;50.748;13.142;2024-02-26T14:16:59;94563.59;;;11.03;72.22
15007;BME280;7599;50.748;13.142;2024-02-26T14:20:08;94567.44;;;11.02;72.23
15007;BME280;7599;50.748;13.142;2024-02-26T14:23:11;94573.69;;;11.06;72.70
15007;BME280;7599;50.748;13.142;2024-02-26T14:26:15;94568.28;;;11.06;72.86
15007;BME280;7599;50.748;13.142;2024-02-26T14:29:18;94568.63;;;11.05;72.07
15007;BME280;7599;50.748;13.142;2024-02-26T14:32:21;94577.31;;;10.98;72.97
15007;BME280;7599;50.748;13.142;2024-02-26T14:35:25;94583.66;;;11.06;72.20
15007;BME280;7599;50.748;13.142;2024-02-26T14:38:28;94591.28;;;11.04;72.50
15007;BME280;7599;50.748;13.142;2024-02-26T14:41:32;94580.88;;;11.02;72.04
15007;BME280;7599;50.748;13.142;2024-02-26T14:44:49;94578.19;;;11.02;71.93
15007;BME280;7599;50.748;13.142;2024-02-26T14:47:52;94591.63;;;11.02;72.83
15007;BME280;7599;50.748;13.142;2024-02-26T14:50:59;94590.59;;;11.07;72.45
15007;BME280;7599;50.748;13.142;2024-02-26T14:54:02;94584.69;;;11.01;72.19
15007;BME280;7599;50.748;13.142;2024-02-26T14:57:11;94598.91;;;11.02;72.49
15007;BME280;7599;50.748;13.142;2024-02-26T15:00:23;94586.84;;;10.96;72.71
15007;BME280;7599;50.748;13.142;2024-02-26T15:03:26;94595.88;;;11.03;72.10
15007;BME280;7599;50.748;13.142;2024-02-26T15:06:30;94589.34;;;11.04;72.62
15007;BME280;7599;50.748;13.142;2024-02-26T15:09:33;94589.72;;;11.03;72.69
15007;BME280;7599;50.748;13.142;2024-02-26T15:12:37;94589.72;;;11.03;72.16
15007;BME280;7599;50.748;13.142;2024-02-26T15:15:40;94602.53;;;11.10;71.91
15007;BME280;7599;50.748;13.142;2024-02-26T15:18:43;94593.28;;;11.07;71.86
15007;BME280;7599;50.748;13.142;2024-02-26T15:21:48;94589.72;;;11.03;71.95
15007;BME280;7599;50.748;13.142;2024-02-26T15:24:51;94592.50;;;11.06;72.38
15007;BME280;7599;50.748;13.142;2024-02-26T15:27:53;94602.88;;;11.08;72.24
15007;BME280;7599;50.748;13.142;2024-02-26T15:30:56;94592.31;;;10.99;72.36
15007;BME280;7599;50.748;13.142;2024-02-26T15:33:59;94602.09;;;11.07;72.62
15007;BME280;7599;50.748;13.142;2024-02-26T15:37:04;94609.72;;;11.05;72.49
15007;BME280;7599;50.748;13.142;2024-02-26T15:40:08;94598.91;;;11.02;72.60
15007;BME280;7599;50.748;13.142;2024-02-26T15:43:12;94619.03;;;11.08;72.70
15007;BME280;7599;50.748;13.142;2024-02-26T15:46:16;94620.47;;;11.05;73.30
15007;BME280;7599;50.748;13.142;2024-02-26T15:49:19;94628.91;;;11.04;73.21
15007;BME280;7599;50.748;13.142;2024-02-26T15:52:33;94627.72;;;11.01;72.59
15007;BME280;7599;50.748;13.142;2024-02-26T15:55:47;94623.44;;;11.00;73.00
15007;BME280;7599;50.748;13.142;2024-02-26T15:58:49;94630.41;;;11.01;73.10
15007;BME280;7599;50.748;13.142;2024-02-26T16:01:58;94634.63;;;11.02;72.82
15007;BME280;7599;50.748;13.142;2024-02-26T16:05:01;94641.66;;;11.07;73.26
15007;BME280;7599;50.748;13.142;2024-02-26T16:08:11;94643.56;;;11.06;72.26
15007;BME280;7599;50.748;13.142;2024-02-26T16:11:14;94650.50;;;11.07;72.96
15007;BME280;7599;50.748;13.142;2024-02-26T16:14:21;94661.25;;;11.07;72.74
15007;BME280;7599;50.748;13.142;2024-02-26T16:17:29;94651.28;;;11.08;72.74
15007;BME280;7599;50.748;13.142;2024-02-26T16:20:35;94650.06;;;11.05;72.60
15007;BME280;7599;50.748;13.142;2024-02-26T16:23:40;94646.59;;;11.05;72.52
15007;BME280;7599;50.748;13.142;2024-02-26T16:26:43;94653.88;;;11.04;72.33
15007;BME280;7599;50.748;13.142;2024-02-26T16:29:45;94664.38;;;11.10;71.96
15007;BME280;7599;50.748;13.142;2024-02-26T16:32:49;94671.56;;;11.05;72.65
15007;BME280;7599;50.748;13.142;2024-02-26T16:35:51;94683.53;;;11.08;72.27
15007;BME280;7599;50.748;13.142;2024-02-26T16:38:57;94678.44;;;11.03;72.41
15007;BME280;7599;50.748;13.142;2024-02-26T16:41:59;94681.91;;;11.03;72.71
15007;BME280;7599;50.748;13.142;2024-02-26T16:45:02;94693.53;;;11.07;72.99
15007;BME280;7599;50.748;13.142;2024-02-26T16:48:06;94679.47;;;10.98;72.59
15007;BME280;7599;50.748;13.142;2024-02-26T16:51:09;94693.00;;;11.02;72.79
15007;BME280;7599;50.748;13.142;2024-02-26T16:54:36;94696.56;;;11.06;72.66
15007;BME280;7599;50.748;13.142;2024-02-26T16:57:40;94699.78;;;11.12;72.51